SPHO/AYP METAR and TAF weather

Enter ICAO airport designator
Station Type Date Time Source
SPHO METAR 2020/08/14 17:00 UTC NOAA

SPHO 141700Z VRB06KT 9999 FEW035 21/02 Q1025 RMK PP000


Station Type Date Time Source
SPHO Decoded METAR 2020/08/14 17:00 UTC NOAA

Ayacucho, Peru (SPHO) 13-08S 074-13W 2749M
Aug 14, 2020 - 01:00 PM EDT / 2020.08.14 1700 UTC
Wind: Variable at 7 MPH (6 KT):0
Visibility: greater than 7 mile(s):0
Sky conditions: mostly clear
Temperature: 69 F (21 C)
Dew Point: 35 F (2 C)
Relative Humidity: 28%
Pressure (altimeter): 30.27 in. Hg (1025 hPa)
ob: SPHO 141700Z VRB06KT 9999 FEW035 21/02 Q1025 RMK PP000
cycle: 17

Station Type Date Time Source
SPHO TAF 2020/08/14 12:33 UTC NOAA

TAF TAF SPHO 141322Z 1412/1512 VRB03KT 9999 FEW035 TX25/1420Z TN09/1511Z

Example: see airport list